createdAt,value
2022-12-15T00:00:43.475Z,938.6362305
2022-12-15T00:01:44.761Z,938.6646118
2022-12-15T00:02:45.411Z,938.6373291
2022-12-15T00:03:45.927Z,938.6508789
2022-12-15T00:04:46.485Z,938.6791382
2022-12-15T00:05:49.816Z,938.6519775
2022-12-15T00:06:48.255Z,938.7203369
2022-12-15T00:07:48.779Z,938.6690674
2022-12-15T00:08:49.300Z,938.6882935
2022-12-15T00:09:49.945Z,938.6925049
2022-12-15T00:10:50.493Z,938.663269
2022-12-15T00:11:51.740Z,938.6745605
2022-12-15T00:12:52.483Z,938.6264038
2022-12-15T00:13:53.151Z,938.6281128
2022-12-15T00:14:53.685Z,938.6489258
2022-12-15T00:15:54.479Z,938.6793823
2022-12-15T00:16:54.910Z,938.7012329
2022-12-15T00:17:55.441Z,938.7246704
2022-12-15T00:18:56.308Z,938.7525024
2022-12-15T00:19:56.859Z,938.7316895
2022-12-15T00:20:57.483Z,938.7097778
2022-12-15T00:21:58.757Z,938.720459
2022-12-15T00:22:59.371Z,938.7322388
2022-12-15T00:23:59.955Z,938.7451782
2022-12-15T00:25:00.438Z,938.7445068
2022-12-15T00:26:01.601Z,938.789978
2022-12-15T00:27:02.163Z,938.7712402
2022-12-15T00:28:02.759Z,938.7792358
2022-12-15T00:29:03.400Z,938.817749
2022-12-15T00:30:04.903Z,938.7776489
2022-12-15T00:31:05.558Z,938.7846069
2022-12-15T00:32:06.939Z,938.7583618
2022-12-15T00:33:38.063Z,938.7959595
2022-12-15T00:34:38.620Z,938.8096924
2022-12-15T00:35:39.201Z,938.8305664
2022-12-15T00:36:39.831Z,938.8320923
2022-12-15T00:37:40.332Z,938.8023682
2022-12-15T00:38:40.832Z,938.7648315
2022-12-15T00:39:41.325Z,938.7687378
2022-12-15T00:40:41.883Z,938.7366943
2022-12-15T00:41:42.452Z,938.7296753
2022-12-15T00:42:43.478Z,938.7495117
2022-12-15T00:43:44.031Z,938.7223511
2022-12-15T00:44:44.572Z,938.7382813
2022-12-15T00:45:45.210Z,938.7023315
2022-12-15T00:46:45.926Z,938.7493896
2022-12-15T00:47:46.293Z,938.7445068
2022-12-15T00:48:46.835Z,938.7443848
2022-12-15T00:49:47.342Z,938.7348633
2022-12-15T00:50:47.932Z,938.7296143
2022-12-15T00:51:48.573Z,938.7226563
2022-12-15T00:52:49.999Z,938.7418823
2022-12-15T00:53:50.561Z,938.6916504
2022-12-15T00:54:51.083Z,938.678894
2022-12-15T00:55:51.604Z,938.6836548
2022-12-15T00:56:52.171Z,938.6795044
2022-12-15T00:57:53.483Z,938.6795044
2022-12-15T00:58:54.089Z,938.7045288
2022-12-15T00:59:54.555Z,938.743042
2022-12-15T01:00:55.134Z,938.7329712
2022-12-15T01:01:55.906Z,938.7362671
2022-12-15T01:02:57.177Z,938.7804565
2022-12-15T01:03:57.765Z,938.8509521
2022-12-15T01:04:58.200Z,938.8781128
2022-12-15T01:05:58.730Z,938.852478
2022-12-15T01:06:59.287Z,938.8510132
2022-12-15T01:07:59.780Z,938.8914185
2022-12-15T01:09:00.426Z,938.8434448
2022-12-15T01:10:00.934Z,938.8813477
2022-12-15T01:11:01.505Z,938.8637695
2022-12-15T01:12:02.071Z,938.8926392
2022-12-15T01:13:02.530Z,938.9039307
2022-12-15T01:14:03.085Z,938.8591919
2022-12-15T01:15:03.699Z,938.8409424
2022-12-15T01:16:05.141Z,938.8826294
2022-12-15T01:17:06.157Z,938.8515625
2022-12-15T01:18:36.857Z,938.8831177
2022-12-15T01:19:37.461Z,938.8970947
2022-12-15T01:20:38.077Z,938.8948364
2022-12-15T01:21:38.734Z,938.944458
2022-12-15T01:22:40.038Z,938.9451294
2022-12-15T01:23:40.604Z,938.8634644
2022-12-15T01:24:41.976Z,938.8762207
2022-12-15T01:25:42.604Z,938.8751831
2022-12-15T01:26:43.083Z,938.8607178
2022-12-15T01:27:43.669Z,938.9007568
2022-12-15T01:28:44.178Z,938.9017334
2022-12-15T01:29:44.745Z,938.8588867
2022-12-15T01:30:45.345Z,938.8723145
2022-12-15T01:31:46.170Z,938.8858032
2022-12-15T01:32:47.576Z,938.9081421
2022-12-15T01:33:48.144Z,938.8845825
2022-12-15T01:34:48.705Z,938.928772
2022-12-15T01:35:49.296Z,938.9133301
2022-12-15T01:36:49.917Z,938.8348389
2022-12-15T01:37:51.175Z,938.8423462
2022-12-15T01:38:54.227Z,938.8401489
2022-12-15T01:39:53.162Z,938.913269
2022-12-15T01:40:53.852Z,938.9053345
2022-12-15T01:41:54.407Z,938.9221802
2022-12-15T01:42:55.658Z,938.9755249
2022-12-15T01:43:56.164Z,938.9254761
2022-12-15T01:44:56.742Z,938.9654541
2022-12-15T01:45:57.282Z,938.9926758
2022-12-15T01:46:57.824Z,939.0229492
2022-12-15T01:47:58.572Z,939.0178223
2022-12-15T01:48:59.128Z,939.0737305
2022-12-15T01:49:59.690Z,939.0320435
2022-12-15T01:51:00.261Z,938.9957275
2022-12-15T01:52:00.769Z,939.0292969
2022-12-15T01:53:02.396Z,938.9690552
2022-12-15T01:54:02.922Z,939.0201416
2022-12-15T01:55:03.404Z,939.0063477
2022-12-15T01:56:03.958Z,938.9671631
2022-12-15T01:57:04.471Z,939.0509644
2022-12-15T01:58:05.114Z,939.0723267
2022-12-15T01:59:36.096Z,939.1171875
2022-12-15T02:00:36.762Z,939.0819702
2022-12-15T02:01:37.440Z,939.147644
2022-12-15T02:02:40.554Z,939.1370239
2022-12-15T02:03:39.483Z,939.2073975
2022-12-15T02:04:39.949Z,939.1539917
2022-12-15T02:05:40.659Z,939.2234497
2022-12-15T02:06:41.204Z,939.2249756
2022-12-15T02:07:42.610Z,939.2762451
2022-12-15T02:08:43.160Z,939.2634277
2022-12-15T02:09:43.780Z,939.2857666
2022-12-15T02:10:44.359Z,939.2351685
2022-12-15T02:11:44.926Z,939.2731323
2022-12-15T02:12:46.167Z,939.2976685
2022-12-15T02:13:49.708Z,939.2948608
2022-12-15T02:14:48.263Z,939.319519
2022-12-15T02:15:48.839Z,939.2457886
2022-12-15T02:16:49.352Z,939.2539063
2022-12-15T02:17:49.981Z,939.196228
2022-12-15T02:18:50.581Z,939.2550049
2022-12-15T02:19:51.232Z,939.2025757
2022-12-15T02:20:51.748Z,939.2281494
2022-12-15T02:21:52.557Z,939.1904907
2022-12-15T02:22:53.723Z,939.1568604
2022-12-15T02:23:54.428Z,939.1551514
2022-12-15T02:24:55.132Z,939.1397705
2022-12-15T02:25:55.648Z,939.142334
2022-12-15T02:26:56.217Z,939.1398315
2022-12-15T02:27:56.760Z,939.1013794
2022-12-15T02:28:57.336Z,939.1578979
2022-12-15T02:29:57.873Z,939.1418457
2022-12-15T02:30:58.443Z,939.1275024
2022-12-15T02:31:59.168Z,939.1323242
2022-12-15T02:33:00.251Z,939.1147461
2022-12-15T02:34:00.815Z,939.1842041
2022-12-15T02:35:01.457Z,939.2338867
2022-12-15T02:36:02.074Z,939.2115479
2022-12-15T02:37:02.699Z,939.157959
2022-12-15T02:38:03.304Z,939.1766968
2022-12-15T02:39:03.895Z,939.1862793
2022-12-15T02:40:04.390Z,939.2092896
2022-12-15T02:41:36.481Z,939.1798706
2022-12-15T02:42:37.051Z,939.15271
2022-12-15T02:43:38.493Z,939.1329956
2022-12-15T02:44:39.089Z,939.1192017
2022-12-15T02:45:39.711Z,939.1314087
2022-12-15T02:46:40.157Z,939.1528931
2022-12-15T02:47:40.705Z,939.125061
2022-12-15T02:48:41.211Z,939.1287231
2022-12-15T02:49:41.799Z,939.1832275
2022-12-15T02:50:42.405Z,939.1598511
2022-12-15T02:51:42.884Z,939.1534424
2022-12-15T02:52:43.436Z,939.1534424
2022-12-15T02:53:44.976Z,939.1928101
2022-12-15T02:54:45.521Z,939.2041626
2022-12-15T02:55:46.075Z,939.1976318
2022-12-15T02:56:46.552Z,939.1870117
2022-12-15T02:57:47.102Z,939.1534424
2022-12-15T02:58:47.654Z,939.1784668
2022-12-15T02:59:48.164Z,939.241394
2022-12-15T03:00:48.791Z,939.243042
2022-12-15T03:01:49.468Z,939.2243652
2022-12-15T03:02:50.622Z,939.1881104
2022-12-15T03:03:52.079Z,939.1698608
2022-12-15T03:04:52.894Z,939.1896973
2022-12-15T03:05:53.465Z,939.2306519
2022-12-15T03:07:00.410Z,939.2243652
2022-12-15T03:07:54.584Z,939.21698
2022-12-15T03:08:55.127Z,939.222168
2022-12-15T03:09:55.636Z,939.1715088
2022-12-15T03:10:56.250Z,939.2115479
2022-12-15T03:11:56.754Z,939.1885376
2022-12-15T03:12:58.233Z,939.1395264
2022-12-15T03:13:58.821Z,939.1987305
2022-12-15T03:14:59.372Z,939.1640625
2022-12-15T03:15:59.980Z,939.1490479
2022-12-15T03:17:00.458Z,939.1500854
2022-12-15T03:18:00.937Z,939.140625
2022-12-15T03:19:01.538Z,939.0973511
2022-12-15T03:20:02.097Z,939.1101685
2022-12-15T03:21:02.646Z,939.142334
2022-12-15T03:22:03.219Z,939.1347046
2022-12-15T03:23:04.305Z,939.1466675
2022-12-15T03:24:35.119Z,939.0825806
2022-12-15T03:25:35.730Z,939.0906372
2022-12-15T03:26:36.276Z,939.1156006
2022-12-15T03:27:37.467Z,939.1306152
2022-12-15T03:28:37.999Z,939.1188354
2022-12-15T03:29:38.502Z,939.0970459
2022-12-15T03:30:39.151Z,939.1194458
2022-12-15T03:31:39.731Z,939.1322021
2022-12-15T03:32:40.189Z,939.1203613
2022-12-15T03:33:41.584Z,939.1235962
2022-12-15T03:34:42.117Z,939.1209106
2022-12-15T03:35:42.673Z,939.0296631
2022-12-15T03:36:43.141Z,939.1224976
2022-12-15T03:37:43.661Z,939.133728
2022-12-15T03:38:44.181Z,939.1646729
2022-12-15T03:39:44.677Z,939.2207642
2022-12-15T03:40:45.335Z,939.2377319
2022-12-15T03:41:45.783Z,939.2404175
2022-12-15T03:42:46.348Z,939.2948608
2022-12-15T03:43:49.632Z,939.2987671
2022-12-15T03:44:48.043Z,939.300415
2022-12-15T03:45:48.673Z,939.2828369
2022-12-15T03:46:49.088Z,939.2747803
2022-12-15T03:47:49.593Z,939.2932739
2022-12-15T03:48:50.139Z,939.2884521
2022-12-15T03:49:50.654Z,939.3259888
2022-12-15T03:50:51.302Z,939.3531494
2022-12-15T03:51:51.775Z,939.3814087
2022-12-15T03:52:52.537Z,939.352478
2022-12-15T03:53:53.973Z,939.394043
2022-12-15T03:54:54.492Z,939.361084
2022-12-15T03:55:55.173Z,939.4015503
2022-12-15T03:56:55.572Z,939.3707275
2022-12-15T03:57:56.068Z,939.3699341
2022-12-15T03:58:56.628Z,939.414856
2022-12-15T03:59:57.180Z,939.3709106
2022-12-15T04:00:57.818Z,939.4071655
2022-12-15T04:01:58.228Z,939.3948364
2022-12-15T04:02:58.880Z,939.3622437
2022-12-15T04:04:01.149Z,939.3856201
2022-12-15T04:05:00.531Z,939.3770142
2022-12-15T04:06:01.160Z,939.3429565
2022-12-15T04:07:01.662Z,939.3027954
2022-12-15T04:08:02.827Z,939.2461548
2022-12-15T04:09:03.439Z,939.2617188
2022-12-15T04:10:35.110Z,939.3309937
2022-12-15T04:11:34.991Z,939.2818604
2022-12-15T04:12:35.506Z,939.2747803
2022-12-15T04:13:36.817Z,939.2731323
2022-12-15T04:14:37.375Z,939.2704468
2022-12-15T04:15:37.890Z,939.24646
2022-12-15T04:16:38.599Z,939.253418
2022-12-15T04:17:39.007Z,939.210144
2022-12-15T04:18:39.550Z,939.1813965
2022-12-15T04:19:40.073Z,939.1802979
2022-12-15T04:20:40.592Z,939.1925049
2022-12-15T04:21:41.227Z,939.2053223
2022-12-15T04:22:41.741Z,939.1546631
2022-12-15T04:23:42.789Z,939.1578369
2022-12-15T04:24:43.331Z,939.1578369
2022-12-15T04:25:43.827Z,939.1546021
2022-12-15T04:26:44.453Z,939.1760254
2022-12-15T04:27:44.904Z,939.1813354
2022-12-15T04:28:45.475Z,939.1935425
2022-12-15T04:29:45.999Z,939.2133789
2022-12-15T04:30:46.626Z,939.22229
2022-12-15T04:31:48.115Z,939.2139282
2022-12-15T04:32:49.832Z,939.1571655
2022-12-15T04:33:49.802Z,939.147522
2022-12-15T04:34:50.356Z,939.0953369
2022-12-15T04:35:50.870Z,939.1443481
2022-12-15T04:36:51.481Z,939.2042236
2022-12-15T04:37:51.933Z,939.1758423
2022-12-15T04:38:52.636Z,939.2068481
2022-12-15T04:39:53.110Z,939.1838989
2022-12-15T04:40:53.628Z,939.2090454
2022-12-15T04:41:54.171Z,939.2346802
2022-12-15T04:42:54.670Z,939.2453003
2022-12-15T04:43:56.224Z,939.2902222
2022-12-15T04:44:56.682Z,939.3015747
2022-12-15T04:45:57.283Z,939.2567139
2022-12-15T04:46:57.799Z,939.274353
2022-12-15T04:47:58.240Z,939.2545166
2022-12-15T04:48:58.797Z,939.2780762
2022-12-15T04:49:59.325Z,939.2786865
2022-12-15T04:50:59.869Z,939.3043823
2022-12-15T04:52:00.565Z,939.3021851
2022-12-15T04:53:01.052Z,939.2844238
2022-12-15T04:54:02.552Z,939.3201294
2022-12-15T04:55:04.230Z,939.3190918
2022-12-15T04:56:35.120Z,939.3034668
2022-12-15T04:57:35.633Z,939.3322144
2022-12-15T04:58:36.241Z,939.3237305
2022-12-15T04:59:36.804Z,939.3418579
2022-12-15T05:00:37.341Z,939.3384399
2022-12-15T05:01:37.928Z,939.3395386
2022-12-15T05:02:38.538Z,939.3404541
2022-12-15T05:03:39.739Z,939.2977295
2022-12-15T05:04:40.383Z,939.2823486
2022-12-15T05:05:41.714Z,939.2709961
2022-12-15T05:06:42.271Z,939.2796021
2022-12-15T05:07:42.805Z,939.2930298
2022-12-15T05:08:43.345Z,939.2652588
2022-12-15T05:09:43.830Z,939.2636108
2022-12-15T05:10:44.633Z,939.2562256
2022-12-15T05:11:45.206Z,939.2634277
2022-12-15T05:12:45.806Z,939.2479858
2022-12-15T05:13:47.222Z,939.2843628
2022-12-15T05:14:49.557Z,939.2468262
2022-12-15T05:15:48.489Z,939.2318726
2022-12-15T05:16:49.004Z,939.2409668
2022-12-15T05:17:49.618Z,939.2036133
2022-12-15T05:18:50.116Z,939.1997681
2022-12-15T05:19:50.660Z,939.2434082
2022-12-15T05:20:51.205Z,939.2850952
2022-12-15T05:21:51.727Z,939.3648682
2022-12-15T05:23:22.591Z,939.4561157
2022-12-15T05:24:54.244Z,939.4291992
2022-12-15T05:25:55.721Z,939.3903198
2022-12-15T05:26:56.323Z,939.3517456
2022-12-15T05:27:56.807Z,939.3496704
2022-12-15T05:28:57.328Z,939.3308716
2022-12-15T05:29:57.914Z,939.335022
2022-12-15T05:30:59.276Z,939.302002
2022-12-15T05:31:59.722Z,939.2698975
2022-12-15T05:33:00.208Z,939.2385254
2022-12-15T05:34:05.391Z,939.2485962
2022-12-15T05:35:02.309Z,939.2468872
2022-12-15T05:36:33.417Z,939.2595825
2022-12-15T05:37:33.939Z,939.2120361
2022-12-15T05:38:34.462Z,939.242981
2022-12-15T05:39:35.616Z,939.2739258
2022-12-15T05:40:36.083Z,939.296814
2022-12-15T05:41:36.597Z,939.2870483
2022-12-15T05:42:37.148Z,939.2849731
2022-12-15T05:43:37.638Z,939.2623291
2022-12-15T05:44:39.125Z,939.2079468
2022-12-15T05:45:39.651Z,939.2140503
2022-12-15T05:46:40.312Z,939.1549072
2022-12-15T05:47:40.834Z,939.1654053
2022-12-15T05:48:41.305Z,939.1166992
2022-12-15T05:49:41.898Z,939.1486206
2022-12-15T05:50:42.383Z,939.1296387
2022-12-15T05:51:42.941Z,939.121582
2022-12-15T05:52:49.015Z,939.138916
2022-12-15T05:53:44.004Z,939.1132813
2022-12-15T05:54:45.492Z,939.1659546
2022-12-15T05:55:45.965Z,939.1520386
2022-12-15T05:56:46.586Z,939.1307983
2022-12-15T05:57:47.963Z,939.1204834
2022-12-15T05:58:48.557Z,939.0441895
2022-12-15T05:59:49.103Z,939.0516968
2022-12-15T06:00:49.630Z,939.0268555
2022-12-15T06:01:50.164Z,938.9974976
2022-12-15T06:02:50.694Z,939.0151367
2022-12-15T06:03:51.177Z,939.0357666
2022-12-15T06:04:52.672Z,939.0643921
2022-12-15T06:05:56.464Z,939.092041
2022-12-15T06:06:53.861Z,939.1532593
2022-12-15T06:07:55.029Z,939.1155396
2022-12-15T06:08:55.551Z,939.1218872
2022-12-15T06:09:56.078Z,939.1623535
2022-12-15T06:10:56.774Z,939.1766968
2022-12-15T06:11:57.290Z,939.1749878
2022-12-15T06:12:57.910Z,939.1173706
2022-12-15T06:13:58.486Z,939.1403198
2022-12-15T06:15:00.007Z,939.1184082
2022-12-15T06:16:00.624Z,939.109314
2022-12-15T06:17:01.169Z,939.1298218
2022-12-15T06:18:01.633Z,939.1224976
2022-12-15T06:19:02.618Z,939.1021118
2022-12-15T06:20:33.523Z,939.0836182
2022-12-15T06:21:33.972Z,939.1134644
2022-12-15T06:22:35.007Z,939.0840454
2022-12-15T06:23:35.653Z,939.0964966
2022-12-15T06:24:36.737Z,939.0975952
2022-12-15T06:25:37.349Z,939.1147461
2022-12-15T06:26:38.720Z,939.1239014
2022-12-15T06:27:39.390Z,939.1362305
2022-12-15T06:28:39.998Z,939.1395264
2022-12-15T06:29:40.597Z,939.1489258
2022-12-15T06:30:41.132Z,939.1447144
2022-12-15T06:31:41.689Z,939.1245117
2022-12-15T06:32:42.128Z,939.1642456
2022-12-15T06:33:42.638Z,939.1782837
2022-12-15T06:34:43.297Z,939.1221924
2022-12-15T06:35:43.806Z,939.1186523
2022-12-15T06:36:44.373Z,939.1673584
2022-12-15T06:37:44.911Z,939.1390381
2022-12-15T06:38:45.415Z,939.1713867
2022-12-15T06:39:45.973Z,939.2545166
2022-12-15T06:40:46.553Z,939.2606812
2022-12-15T06:41:47.078Z,939.2304688
2022-12-15T06:42:47.600Z,939.1869507
2022-12-15T06:43:48.102Z,939.2131958
2022-12-15T06:44:49.968Z,939.2164307
2022-12-15T06:45:50.169Z,939.2053223
2022-12-15T06:46:50.866Z,939.2249756
2022-12-15T06:47:54.256Z,939.2647095
2022-12-15T06:48:52.542Z,939.3261719
2022-12-15T06:49:53.057Z,939.2879639
2022-12-15T06:50:53.626Z,939.321106
2022-12-15T06:51:54.151Z,939.3948364
2022-12-15T06:52:54.645Z,939.378418
2022-12-15T06:53:55.387Z,939.3959961
2022-12-15T06:54:56.486Z,939.4431152
2022-12-15T06:55:57.008Z,939.4545288
2022-12-15T06:56:57.654Z,939.5176392
2022-12-15T06:57:58.210Z,939.5967407
2022-12-15T06:58:58.808Z,939.6026611
2022-12-15T06:59:59.472Z,939.6298218
2022-12-15T07:01:00.182Z,939.6269531
2022-12-15T07:02:00.967Z,939.6883545
2022-12-15T07:03:01.536Z,939.7310791
2022-12-15T07:04:33.201Z,939.7749023
2022-12-15T07:05:33.826Z,939.7510986
2022-12-15T07:06:34.396Z,939.8096924
2022-12-15T07:07:34.919Z,939.850769
2022-12-15T07:08:41.392Z,939.9101563
2022-12-15T07:09:35.979Z,939.895752
2022-12-15T07:10:36.629Z,939.9438477
2022-12-15T07:11:37.173Z,939.9737549
2022-12-15T07:12:37.720Z,939.9202881
2022-12-15T07:13:38.208Z,940.0148315
2022-12-15T07:14:39.798Z,939.9949951
2022-12-15T07:15:40.363Z,940.026123
2022-12-15T07:16:41.015Z,940.0351563
2022-12-15T07:17:41.448Z,940.0426025
2022-12-15T07:18:42.055Z,940.0629883
2022-12-15T07:19:42.597Z,940.0095825
2022-12-15T07:20:43.153Z,939.9472656
2022-12-15T07:21:43.743Z,939.9724731
2022-12-15T07:22:44.540Z,939.8789673
2022-12-15T07:23:55.380Z,939.9143677
2022-12-15T07:24:46.315Z,939.8551636
2022-12-15T07:25:46.882Z,939.8616943
2022-12-15T07:26:48.918Z,939.8397827
2022-12-15T07:27:48.703Z,939.8654785
2022-12-15T07:28:49.789Z,939.8622437
2022-12-15T07:29:50.391Z,939.8104858
2022-12-15T07:30:50.987Z,939.8510742
2022-12-15T07:31:51.592Z,939.8568115
2022-12-15T07:32:52.519Z,939.928894
2022-12-15T07:33:53.039Z,939.9391479
2022-12-15T07:34:54.288Z,940.0234375
2022-12-15T07:35:54.820Z,940.0393677
2022-12-15T07:36:55.366Z,940.1194458
2022-12-15T07:37:55.927Z,940.1889038
2022-12-15T07:38:56.449Z,940.2129517
2022-12-15T07:39:57.067Z,940.2027588
2022-12-15T07:40:57.644Z,940.1802979
2022-12-15T07:41:58.332Z,940.177124
2022-12-15T07:42:58.820Z,940.197876
2022-12-15T07:43:59.377Z,940.1760864
2022-12-15T07:45:00.705Z,940.2178345
2022-12-15T07:46:01.871Z,940.2306519
2022-12-15T07:47:32.687Z,940.255127
2022-12-15T07:48:33.305Z,940.1917114
2022-12-15T07:49:33.764Z,940.2109375
2022-12-15T07:50:34.259Z,940.1654663
2022-12-15T07:51:34.880Z,940.1099243
2022-12-15T07:52:35.443Z,940.067749
2022-12-15T07:53:36.087Z,940.1292114
2022-12-15T07:54:37.212Z,940.151123
2022-12-15T07:56:05.766Z,940.1864014
2022-12-15T07:56:39.458Z,940.166626
2022-12-15T07:57:39.664Z,940.1512451
2022-12-15T07:58:40.186Z,940.1948242
2022-12-15T07:59:40.727Z,940.1875
2022-12-15T08:00:46.868Z,940.1917114
2022-12-15T08:01:42.104Z,940.2248535
2022-12-15T08:02:42.708Z,940.2232666
2022-12-15T08:03:43.071Z,940.2009888
2022-12-15T08:04:44.208Z,940.2501831
2022-12-15T08:05:45.702Z,940.210144
2022-12-15T08:06:46.369Z,940.1677856
2022-12-15T08:07:46.923Z,940.1706543
2022-12-15T08:08:50.286Z,940.1690674
2022-12-15T08:09:47.991Z,940.1883545
2022-12-15T08:10:48.503Z,940.1964111
2022-12-15T08:11:49.129Z,940.1487427
2022-12-15T08:12:49.905Z,940.1559448
2022-12-15T08:14:04.378Z,940.1255493
2022-12-15T08:14:51.709Z,940.1170044
2022-12-15T08:15:52.780Z,940.1090698
2022-12-15T08:16:53.366Z,940.0770264
2022-12-15T08:17:53.882Z,939.994873
2022-12-15T08:18:54.469Z,939.9920044
2022-12-15T08:19:58.771Z,940.0248413
2022-12-15T08:20:55.464Z,940.0557251
2022-12-15T08:21:56.038Z,940.0792236
2022-12-15T08:22:56.611Z,940.0904541
2022-12-15T08:23:57.218Z,940.086853
2022-12-15T08:24:58.719Z,940.1045532
2022-12-15T08:25:59.208Z,940.0837402
2022-12-15T08:27:00.700Z,939.9743652
2022-12-15T08:28:31.648Z,940.0113525
2022-12-15T08:29:50.642Z,940.0396118
2022-12-15T08:30:32.751Z,940.0220337
2022-12-15T08:31:33.348Z,940.041748
2022-12-15T08:32:33.774Z,939.9899902
2022-12-15T08:33:34.850Z,940.0076294
2022-12-15T08:34:34.858Z,939.9735107
2022-12-15T08:35:55.586Z,940.0195313
2022-12-15T08:36:36.950Z,939.9977417
2022-12-15T08:37:37.539Z,939.9940796
2022-12-15T08:38:38.038Z,939.9799805
2022-12-15T08:39:38.573Z,939.9776001
2022-12-15T08:40:39.138Z,939.9572144
2022-12-15T08:41:39.752Z,939.925293
2022-12-15T08:42:40.341Z,939.9504395
2022-12-15T08:43:47.505Z,939.9403687
2022-12-15T08:44:41.440Z,939.9831543
2022-12-15T08:45:42.565Z,939.9474487
2022-12-15T08:46:43.024Z,939.9173584
2022-12-15T08:47:43.630Z,939.9938965
2022-12-15T08:48:44.181Z,940.0131226
2022-12-15T08:49:44.789Z,940.0276489
2022-12-15T08:50:45.306Z,940.0720215
2022-12-15T08:51:45.835Z,940.0448608
2022-12-15T08:53:06.542Z,940.1079102
2022-12-15T08:53:47.245Z,940.1217041
2022-12-15T08:54:47.541Z,940.0722046
2022-12-15T08:55:48.960Z,940.1095581
2022-12-15T08:56:49.542Z,940.0471802
2022-12-15T08:57:50.064Z,940.0812988
2022-12-15T08:58:50.715Z,940.0360107
2022-12-15T08:59:51.967Z,940.0334473
2022-12-15T09:00:52.654Z,940.0067139
2022-12-15T09:01:53.151Z,940.0125732
2022-12-15T09:02:53.590Z,940.0244751
2022-12-15T09:03:54.415Z,940.0334473
2022-12-15T09:04:54.791Z,940.0281372
2022-12-15T09:05:56.037Z,940.0527954
2022-12-15T09:06:56.600Z,940.0817261
2022-12-15T09:08:03.064Z,940.0895996
2022-12-15T09:08:58.611Z,940.1152344
2022-12-15T09:09:59.133Z,940.0837402
2022-12-15T09:10:59.830Z,940.102356
2022-12-15T09:12:01.776Z,940.1082764
2022-12-15T09:13:32.816Z,940.1574707
2022-12-15T09:14:33.232Z,940.1906128
2022-12-15T09:16:35.474Z,940.1981201
2022-12-15T09:17:36.060Z,940.1837769
2022-12-15T09:18:36.550Z,940.1848145
2022-12-15T09:19:37.079Z,940.2040405
2022-12-15T09:20:37.619Z,940.249939
2022-12-15T09:21:38.330Z,940.2505493
2022-12-15T09:22:38.902Z,940.2963867
2022-12-15T09:23:39.564Z,940.2905273
2022-12-15T09:24:40.149Z,940.2938232
2022-12-15T09:25:41.446Z,940.3012695
2022-12-15T09:26:42.777Z,940.3002319
2022-12-15T09:27:43.300Z,940.3692017
2022-12-15T09:28:43.899Z,940.3781128
2022-12-15T09:29:44.488Z,940.3968506
2022-12-15T09:30:44.952Z,940.3990479
2022-12-15T09:31:45.665Z,940.3984375
2022-12-15T09:32:46.237Z,940.4171753
2022-12-15T09:33:46.874Z,940.368103
2022-12-15T09:34:47.498Z,940.4067383
2022-12-15T09:35:49.776Z,940.4227295
2022-12-15T09:36:50.380Z,940.4414063
2022-12-15T09:37:52.044Z,940.4371948
2022-12-15T09:38:51.659Z,940.4455566
2022-12-15T09:39:52.488Z,940.467041
2022-12-15T09:40:53.029Z,940.4712524
2022-12-15T09:41:53.550Z,940.4841919
2022-12-15T09:43:04.852Z,940.4216919
2022-12-15T09:43:55.377Z,940.3804932
2022-12-15T09:44:55.322Z,940.4206543
2022-12-15T09:45:56.509Z,940.3527832
2022-12-15T09:46:57.139Z,940.3353271
2022-12-15T09:47:57.667Z,940.2647095
2022-12-15T09:48:58.393Z,940.211853
2022-12-15T09:49:59.050Z,940.1807861
2022-12-15T09:50:59.536Z,940.133728
2022-12-15T09:52:30.807Z,940.1112671
2022-12-15T09:53:54.063Z,940.1157227
2022-12-15T09:54:32.207Z,940.1300049
2022-12-15T09:55:33.862Z,940.1306152
2022-12-15T09:56:34.525Z,940.1282959
2022-12-15T09:57:35.714Z,940.1149902
2022-12-15T09:58:36.483Z,940.0898438
2022-12-15T09:59:37.091Z,940.0664063
2022-12-15T10:00:37.727Z,940.0443726
2022-12-15T10:01:38.328Z,940.0078735
2022-12-15T10:02:38.859Z,940.0078735
2022-12-15T10:03:39.994Z,939.9731445
2022-12-15T10:04:40.202Z,939.9731445
2022-12-15T10:06:14.236Z,940.0003052
2022-12-15T10:06:42.899Z,939.9550171
2022-12-15T10:07:44.490Z,939.9238892
2022-12-15T10:08:45.195Z,939.9260254
2022-12-15T10:09:46.002Z,939.9035645
2022-12-15T10:10:46.718Z,939.8876343
2022-12-15T10:11:50.303Z,939.8679199
2022-12-15T10:12:55.484Z,939.8673706
2022-12-15T10:13:50.345Z,939.9035645
2022-12-15T10:14:49.923Z,939.9255981
2022-12-15T10:15:50.970Z,939.9523315
2022-12-15T10:16:51.588Z,939.9246826
2022-12-15T10:17:52.482Z,939.9188232
2022-12-15T10:18:56.079Z,939.8933105
2022-12-15T10:19:53.920Z,939.9387207
2022-12-15T10:20:54.766Z,939.8925171
2022-12-15T10:21:55.458Z,939.8983765
2022-12-15T10:22:56.015Z,939.8598633
2022-12-15T10:23:56.870Z,939.8225098
2022-12-15T10:25:09.802Z,939.875
2022-12-15T10:25:59.113Z,939.7938843
2022-12-15T10:27:31.089Z,939.7990723
2022-12-15T10:28:31.650Z,939.8370361
2022-12-15T10:29:32.547Z,939.8479614
2022-12-15T10:30:33.191Z,939.8435669
2022-12-15T10:31:34.079Z,939.8869629
2022-12-15T10:32:42.384Z,939.8428345
2022-12-15T10:33:36.301Z,939.87323
2022-12-15T10:34:36.899Z,939.8492432
2022-12-15T10:35:37.490Z,939.8599854
2022-12-15T10:36:39.540Z,939.7888794
2022-12-15T10:37:40.178Z,939.7910156
2022-12-15T10:38:40.769Z,939.7333374
2022-12-15T10:39:41.546Z,939.7194824
2022-12-15T10:40:42.115Z,939.7404175
2022-12-15T10:41:43.204Z,939.6938477
2022-12-15T10:42:43.825Z,939.7249756
2022-12-15T10:43:44.496Z,939.6970825
2022-12-15T10:44:45.201Z,939.6938477
2022-12-15T10:45:46.802Z,939.694397
2022-12-15T10:46:48.298Z,939.6654663
2022-12-15T10:47:48.847Z,939.5917358
2022-12-15T10:48:49.612Z,939.553772
2022-12-15T10:49:50.222Z,939.5667114
2022-12-15T10:50:50.956Z,939.5714111
2022-12-15T10:51:51.719Z,939.5681152
2022-12-15T10:52:52.529Z,939.5435791
2022-12-15T10:53:53.762Z,939.5338135
2022-12-15T10:54:54.008Z,939.5231934
2022-12-15T10:55:55.214Z,939.5290527
2022-12-15T10:56:55.993Z,939.5237427
2022-12-15T10:57:56.573Z,939.5134277
2022-12-15T10:58:57.380Z,939.4896851
2022-12-15T10:59:58.011Z,939.4765625
2022-12-15T11:00:58.564Z,939.4647827
2022-12-15T11:02:00.026Z,939.4156494
2022-12-15T11:03:31.471Z,939.4276733
2022-12-15T11:04:31.805Z,939.4068604
2022-12-15T11:05:32.277Z,939.3881226
2022-12-15T11:06:33.611Z,939.3623657
2022-12-15T11:07:34.270Z,939.3511963